createdAt,value
2017-12-19T00:03:44.815Z,53.90
2017-12-19T00:06:21.101Z,53.90
2017-12-19T00:08:51.693Z,53.80
2017-12-19T00:11:24.710Z,53.90
2017-12-19T00:13:57.652Z,53.70
2017-12-19T00:16:30.464Z,53.80
2017-12-19T00:19:04.853Z,53.60
2017-12-19T00:21:36.764Z,53.60
2017-12-19T00:24:14.373Z,53.50
2017-12-19T00:26:51.656Z,53.40
2017-12-19T00:29:25.916Z,53.50
2017-12-19T00:31:59.678Z,53.40
2017-12-19T00:34:34.577Z,53.40
2017-12-19T00:37:11.327Z,53.40
2017-12-19T00:39:49.171Z,53.40
2017-12-19T00:42:25.980Z,53.30
2017-12-19T00:45:02.954Z,53.30
2017-12-19T00:47:40.374Z,53.40
2017-12-19T00:50:18.119Z,53.40
2017-12-19T00:52:54.554Z,53.30
2017-12-19T00:55:24.757Z,53.30
2017-12-19T00:57:57.443Z,53.30
2017-12-19T01:00:28.721Z,53.90
2017-12-19T01:02:59.195Z,53.90
2017-12-19T01:05:30.257Z,53.20
2017-12-19T01:07:59.771Z,53.30
2017-12-19T01:10:30.740Z,53.20
2017-12-19T01:13:00.860Z,53.20
2017-12-19T01:15:32.709Z,53.20
2017-12-19T01:18:04.272Z,53.20
2017-12-19T01:20:36.112Z,53.70
2017-12-19T01:23:06.430Z,53.20
2017-12-19T01:25:37.045Z,53.20
2017-12-19T01:28:06.334Z,53.20
2017-12-19T01:30:37.763Z,53.20
2017-12-19T01:33:07.208Z,53.10
2017-12-19T01:35:38.786Z,53.10
2017-12-19T01:38:08.562Z,53.10
2017-12-19T01:40:42.526Z,53.20
2017-12-19T01:43:14.978Z,53.20
2017-12-19T01:45:51.856Z,53.00
2017-12-19T01:48:26.769Z,53.10
2017-12-19T01:50:56.608Z,53.10
2017-12-19T01:53:30.851Z,53.10
2017-12-19T01:56:00.583Z,53.10
2017-12-19T01:58:32.089Z,53.30
2017-12-19T02:01:07.383Z,53.10
2017-12-19T02:03:40.115Z,53.20
2017-12-19T02:06:15.438Z,53.20
2017-12-19T02:08:50.486Z,53.10
2017-12-19T02:11:22.226Z,53.20
2017-12-19T02:13:58.201Z,53.20
2017-12-19T02:16:27.643Z,53.10
2017-12-19T02:18:56.521Z,53.10
2017-12-19T02:21:28.016Z,53.10
2017-12-19T02:26:46.240Z,53.80
2017-12-19T02:29:17.347Z,53.10
2017-12-19T02:31:47.180Z,53.10
2017-12-19T02:34:16.968Z,53.10
2017-12-19T02:36:46.443Z,53.10
2017-12-19T02:39:17.159Z,53.00
2017-12-19T02:41:46.578Z,53.10
2017-12-19T02:44:16.950Z,53.00
2017-12-19T02:46:47.403Z,53.60
2017-12-19T02:49:20.087Z,53.10
2017-12-19T02:51:49.647Z,53.10
2017-12-19T02:54:25.339Z,53.00
2017-12-19T02:56:55.589Z,53.00
2017-12-19T02:59:25.584Z,53.00
2017-12-19T03:01:55.191Z,53.10
2017-12-19T03:04:25.708Z,53.00
2017-12-19T03:06:59.635Z,53.50
2017-12-19T03:09:29.351Z,53.00
2017-12-19T03:11:59.624Z,53.00
2017-12-19T03:14:30.192Z,53.10
2017-12-19T03:16:59.773Z,53.00
2017-12-19T03:19:28.910Z,53.00
2017-12-19T03:33:04.932Z,52.90
2017-12-19T03:35:37.696Z,52.90
2017-12-19T03:38:07.104Z,52.90
2017-12-19T03:40:38.511Z,53.50
2017-12-19T03:43:10.039Z,52.90
2017-12-19T03:45:42.207Z,52.90
2017-12-19T03:48:13.934Z,52.80
2017-12-19T03:50:49.435Z,52.80
2017-12-19T03:53:19.415Z,52.80
2017-12-19T03:55:48.959Z,52.80
2017-12-19T03:58:18.507Z,52.80
2017-12-19T04:00:48.339Z,52.80
2017-12-19T04:03:17.901Z,52.90
2017-12-19T04:05:49.466Z,52.80
2017-12-19T04:08:20.556Z,52.80
2017-12-19T04:10:51.614Z,52.80
2017-12-19T04:13:19.839Z,52.80
2017-12-19T04:15:49.112Z,52.80
2017-12-19T04:18:24.558Z,52.80
2017-12-19T04:20:56.935Z,52.80
2017-12-19T04:23:27.770Z,52.80
2017-12-19T04:25:59.808Z,52.80
2017-12-19T04:28:30.192Z,52.80
2017-12-19T04:30:59.339Z,52.80
2017-12-19T04:33:28.936Z,52.80
2017-12-19T04:38:47.914Z,52.80
2017-12-19T04:41:24.710Z,52.80
2017-12-19T04:43:57.055Z,52.70
2017-12-19T04:46:26.819Z,52.80
2017-12-19T04:48:56.489Z,52.80
2017-12-19T04:51:26.579Z,52.80
2017-12-19T04:53:57.328Z,52.70
2017-12-19T04:56:26.995Z,52.70
2017-12-19T04:58:58.421Z,52.70
2017-12-19T05:01:29.888Z,52.70
2017-12-19T05:03:59.664Z,52.70
2017-12-19T05:06:29.797Z,52.70
2017-12-19T05:09:00.505Z,52.80
2017-12-19T05:11:30.359Z,52.70
2017-12-19T05:14:02.874Z,52.60
2017-12-19T05:16:33.717Z,52.70
2017-12-19T05:19:03.234Z,52.60
2017-12-19T05:21:33.070Z,53.20
2017-12-19T05:24:02.522Z,52.70
2017-12-19T05:26:33.198Z,52.70
2017-12-19T05:29:09.241Z,52.70
2017-12-19T05:31:38.447Z,52.60
2017-12-19T05:34:09.020Z,52.60
2017-12-19T05:36:41.016Z,53.20
2017-12-19T05:39:14.145Z,52.60
2017-12-19T05:41:54.028Z,52.60
2017-12-19T05:44:26.632Z,52.70
2017-12-19T05:46:57.680Z,52.70
2017-12-19T05:49:29.586Z,52.60
2017-12-19T05:52:00.833Z,52.50
2017-12-19T05:54:37.282Z,52.50
2017-12-19T05:57:09.902Z,52.60
2017-12-19T05:59:43.032Z,52.50
2017-12-19T06:02:15.680Z,52.50
2017-12-19T06:04:49.806Z,52.60
2017-12-19T06:07:19.446Z,52.50
2017-12-19T06:09:49.141Z,52.60
2017-12-19T06:12:19.480Z,52.60
2017-12-19T06:17:25.481Z,52.50
2017-12-19T06:19:56.336Z,52.50
2017-12-19T06:22:26.230Z,52.50
2017-12-19T06:24:56.058Z,52.50
2017-12-19T06:27:26.127Z,52.50
2017-12-19T06:29:56.049Z,52.50
2017-12-19T06:32:27.026Z,52.60
2017-12-19T06:34:57.029Z,52.50
2017-12-19T06:37:29.607Z,52.50
2017-12-19T06:40:00.238Z,52.50
2017-12-19T06:42:34.504Z,52.40
2017-12-19T06:45:04.927Z,52.90
2017-12-19T06:47:35.235Z,52.40
2017-12-19T06:50:04.418Z,52.40
2017-12-19T06:52:35.340Z,52.50
2017-12-19T06:55:04.990Z,52.40
2017-12-19T06:57:34.668Z,52.40
2017-12-19T07:00:04.162Z,52.50
2017-12-19T07:02:33.501Z,52.60
2017-12-19T07:05:05.899Z,52.40
2017-12-19T07:07:35.062Z,52.40
2017-12-19T07:10:04.576Z,52.50
2017-12-19T07:12:37.100Z,52.40
2017-12-19T07:15:07.918Z,52.50
2017-12-19T07:17:37.514Z,52.50
2017-12-19T07:20:07.186Z,52.40
2017-12-19T07:22:45.644Z,52.40
2017-12-19T07:25:18.052Z,52.50
2017-12-19T07:27:47.255Z,52.40
2017-12-19T07:30:17.740Z,52.50
2017-12-19T07:32:49.446Z,52.30
2017-12-19T07:35:20.842Z,52.40
2017-12-19T07:37:56.612Z,52.30
2017-12-19T07:40:26.503Z,52.30
2017-12-19T07:42:57.381Z,52.30
2017-12-19T07:45:34.502Z,52.30
2017-12-19T07:48:04.370Z,52.30
2017-12-19T07:50:35.179Z,52.90
2017-12-19T07:53:09.796Z,52.30
2017-12-19T07:58:23.380Z,52.20
2017-12-19T08:00:54.062Z,52.30
2017-12-19T08:03:26.482Z,52.30
2017-12-19T08:05:58.653Z,52.30
2017-12-19T08:08:28.490Z,52.20
2017-12-19T08:10:58.077Z,52.20
2017-12-19T08:13:29.492Z,52.20
2017-12-19T08:16:04.709Z,52.10
2017-12-19T08:18:36.527Z,52.20
2017-12-19T08:21:06.330Z,52.20
2017-12-19T08:23:35.566Z,52.30
2017-12-19T08:26:06.244Z,52.20
2017-12-19T08:28:38.480Z,52.30
2017-12-19T08:31:09.513Z,52.20
2017-12-19T08:33:43.660Z,52.80
2017-12-19T08:36:15.079Z,52.10
2017-12-19T08:38:48.069Z,52.10
2017-12-19T08:41:18.771Z,52.10
2017-12-19T08:43:54.223Z,52.10
2017-12-19T08:46:34.117Z,52.10
2017-12-19T08:49:07.219Z,52.10
2017-12-19T08:51:46.551Z,52.10
2017-12-19T08:54:18.343Z,52.10
2017-12-19T08:56:47.408Z,52.00
2017-12-19T08:59:30.511Z,52.00
2017-12-19T09:02:04.883Z,51.90
2017-12-19T09:04:35.842Z,52.00
2017-12-19T09:07:09.029Z,51.90
2017-12-19T09:09:39.618Z,51.90
2017-12-19T09:12:10.331Z,51.80
2017-12-19T09:14:46.906Z,51.90
2017-12-19T09:17:17.899Z,52.40
2017-12-19T09:19:47.176Z,51.90
2017-12-19T09:22:17.982Z,51.80
2017-12-19T09:24:47.178Z,51.80
2017-12-19T09:27:20.756Z,51.80
2017-12-19T09:29:50.607Z,51.80
2017-12-19T09:32:20.374Z,51.80
2017-12-19T09:34:51.204Z,51.80
2017-12-19T09:37:23.588Z,51.80
2017-12-19T09:39:53.127Z,51.70
2017-12-19T09:42:24.532Z,51.70
2017-12-19T09:44:55.429Z,51.70
2017-12-19T09:47:25.826Z,51.70
2017-12-19T09:49:56.334Z,51.60
2017-12-19T09:52:26.267Z,51.60
2017-12-19T09:54:56.302Z,51.60
2017-12-19T09:57:25.761Z,51.50
2017-12-19T09:59:56.115Z,51.50
2017-12-19T10:02:28.337Z,51.50
2017-12-19T10:05:10.804Z,51.60
2017-12-19T10:07:39.545Z,51.60
2017-12-19T10:10:10.964Z,51.60
2017-12-19T10:12:42.096Z,51.60
2017-12-19T10:15:12.925Z,51.60
2017-12-19T10:17:43.357Z,51.60
2017-12-19T10:20:25.095Z,51.60
2017-12-19T10:23:05.150Z,51.60
2017-12-19T10:25:42.114Z,51.60
2017-12-19T10:28:21.588Z,51.60
2017-12-19T10:30:53.755Z,51.60
2017-12-19T10:33:24.140Z,51.70
2017-12-19T10:35:54.321Z,51.60
2017-12-19T10:38:25.483Z,51.50
2017-12-19T10:40:56.900Z,51.50
2017-12-19T10:49:04.873Z,51.50
2017-12-19T10:51:35.355Z,51.50
2017-12-19T10:54:07.827Z,51.50
2017-12-19T10:56:47.115Z,52.10
2017-12-19T10:59:21.614Z,51.50
2017-12-19T11:01:59.421Z,51.50
2017-12-19T11:04:39.167Z,51.50
2017-12-19T11:15:23.751Z,51.60
2017-12-19T11:20:45.699Z,51.60
2017-12-19T11:23:16.427Z,51.60
2017-12-19T11:25:47.761Z,51.60
2017-12-19T11:28:24.702Z,51.50
2017-12-19T11:30:56.314Z,51.60
2017-12-19T11:33:30.383Z,51.60
2017-12-19T11:36:09.604Z,51.60
2017-12-19T11:38:42.360Z,51.60
2017-12-19T11:41:14.577Z,51.60
2017-12-19T11:43:53.571Z,51.60
2017-12-19T11:46:24.691Z,51.60
2017-12-19T11:48:56.486Z,51.60
2017-12-19T11:51:29.701Z,51.60
2017-12-19T11:54:01.188Z,51.60
2017-12-19T11:56:32.584Z,51.60
2017-12-19T12:01:50.413Z,51.60
2017-12-19T12:04:26.718Z,51.60
2017-12-19T12:07:07.617Z,51.70
2017-12-19T12:09:44.191Z,51.60
2017-12-19T12:12:14.518Z,51.70
2017-12-19T12:14:45.404Z,51.70
2017-12-19T12:17:16.543Z,51.70
2017-12-19T12:28:17.455Z,51.70
2017-12-19T12:30:55.804Z,51.80
2017-12-19T12:33:32.369Z,51.70
2017-12-19T12:36:07.494Z,51.70
2017-12-19T12:38:47.065Z,51.60
2017-12-19T12:41:20.122Z,51.70
2017-12-19T12:43:48.889Z,51.60
2017-12-19T12:46:17.775Z,51.60
2017-12-19T12:48:46.643Z,51.60
2017-12-19T12:51:16.137Z,51.60
2017-12-19T12:53:49.491Z,51.60
2017-12-19T12:56:22.295Z,51.60
2017-12-19T12:58:52.600Z,51.60
2017-12-19T13:01:23.279Z,51.60
2017-12-19T13:03:56.146Z,51.50
2017-12-19T13:06:25.636Z,51.50
2017-12-19T13:08:57.576Z,51.60
2017-12-19T13:11:29.973Z,51.60
2017-12-19T13:14:01.430Z,51.60
2017-12-19T13:16:32.066Z,51.60
2017-12-19T13:19:02.286Z,51.70
2017-12-19T13:21:33.605Z,51.60
2017-12-19T13:24:02.053Z,51.70
2017-12-19T13:26:31.642Z,51.60
2017-12-19T13:29:04.230Z,51.60
2017-12-19T13:31:37.541Z,51.70
2017-12-19T13:34:08.353Z,51.70
2017-12-19T13:36:39.523Z,51.60
2017-12-19T13:39:10.823Z,51.70
2017-12-19T13:41:40.607Z,51.60
2017-12-19T13:44:10.845Z,51.70
2017-12-19T13:46:40.411Z,51.70
2017-12-19T13:49:10.569Z,51.70
2017-12-19T13:51:40.906Z,51.70
2017-12-19T13:54:11.789Z,51.70
2017-12-19T13:56:42.550Z,52.00
2017-12-19T13:59:12.781Z,51.70
2017-12-19T14:01:44.147Z,51.80
2017-12-19T14:04:14.448Z,51.80
2017-12-19T14:06:45.786Z,51.80
2017-12-19T14:09:16.496Z,51.70
2017-12-19T14:11:45.332Z,51.80
2017-12-19T14:14:15.730Z,51.90
2017-12-19T14:16:45.869Z,52.00
2017-12-19T14:19:16.606Z,51.90
2017-12-19T14:21:46.373Z,51.90
2017-12-19T14:24:16.324Z,51.90
2017-12-19T14:26:45.384Z,52.00
2017-12-19T14:29:15.761Z,52.00
2017-12-19T14:31:50.440Z,52.00
2017-12-19T14:34:20.957Z,52.10
2017-12-19T14:36:51.332Z,52.00
2017-12-19T14:39:30.034Z,52.00
2017-12-19T14:42:00.527Z,52.00
2017-12-19T14:44:31.326Z,52.10
2017-12-19T14:47:02.739Z,52.00
2017-12-19T14:49:33.229Z,52.10
2017-12-19T14:52:06.987Z,52.10
2017-12-19T14:54:41.856Z,52.10
2017-12-19T14:57:17.808Z,52.20
2017-12-19T14:59:56.946Z,52.10
2017-12-19T15:02:30.124Z,52.20
2017-12-19T15:05:03.232Z,52.20
2017-12-19T15:07:37.816Z,52.20
2017-12-19T15:10:11.518Z,52.20
2017-12-19T15:12:44.891Z,52.20
2017-12-19T15:15:18.248Z,52.20
2017-12-19T15:17:49.208Z,52.20
2017-12-19T15:20:20.492Z,52.30
2017-12-19T15:22:51.096Z,52.30
2017-12-19T15:25:22.012Z,52.30
2017-12-19T15:27:54.037Z,52.30
2017-12-19T15:30:25.043Z,52.40
2017-12-19T15:33:02.595Z,52.40
2017-12-19T15:35:32.085Z,52.50
2017-12-19T15:38:05.160Z,52.50
2017-12-19T15:40:36.585Z,52.50
2017-12-19T15:43:05.966Z,52.40
2017-12-19T15:45:42.882Z,52.40
2017-12-19T15:48:15.938Z,53.00
2017-12-19T15:53:26.256Z,52.50
2017-12-19T15:55:56.508Z,52.50
2017-12-19T15:58:27.320Z,52.50
2017-12-19T16:00:57.030Z,52.50
2017-12-19T16:06:07.209Z,52.40
2017-12-19T16:08:39.152Z,52.40
2017-12-19T16:11:09.934Z,52.40
2017-12-19T16:13:48.247Z,52.40
2017-12-19T16:16:19.506Z,52.40
2017-12-19T16:18:55.128Z,52.50
2017-12-19T16:21:30.860Z,52.40
2017-12-19T16:24:00.902Z,52.40
2017-12-19T16:26:32.987Z,52.40
2017-12-19T16:29:03.828Z,52.40
2017-12-19T16:31:36.193Z,52.40
2017-12-19T16:34:11.163Z,52.40
2017-12-19T16:36:43.604Z,52.30
2017-12-19T16:39:14.350Z,52.30
2017-12-19T16:41:50.548Z,52.30
2017-12-19T16:44:25.224Z,52.40
2017-12-19T16:47:04.398Z,52.40
2017-12-19T16:49:39.597Z,52.30
2017-12-19T16:52:12.180Z,52.30
2017-12-19T16:54:42.458Z,52.30
2017-12-19T16:57:12.209Z,52.30
2017-12-19T16:59:49.702Z,52.20
2017-12-19T17:02:21.541Z,52.30
2017-12-19T17:04:54.802Z,52.20
2017-12-19T17:07:25.260Z,52.20
2017-12-19T17:10:04.506Z,52.20
2017-12-19T17:12:34.344Z,52.20
2017-12-19T17:15:05.180Z,52.20
2017-12-19T17:17:37.427Z,52.10
2017-12-19T17:20:12.287Z,52.10
2017-12-19T17:22:44.348Z,52.10
2017-12-19T17:25:19.591Z,52.20
2017-12-19T17:27:52.822Z,52.20
2017-12-19T17:30:30.609Z,52.20
2017-12-19T17:35:45.914Z,52.70
2017-12-19T17:38:16.327Z,52.10
2017-12-19T17:40:48.259Z,52.10
2017-12-19T17:43:22.057Z,52.10
2017-12-19T17:45:57.426Z,52.10
2017-12-19T17:48:28.414Z,52.20
2017-12-19T17:51:00.669Z,52.80
2017-12-19T17:53:29.536Z,52.20
2017-12-19T17:56:02.608Z,52.20
2017-12-19T17:58:33.623Z,52.20
2017-12-19T18:01:04.003Z,52.10
2017-12-19T18:03:34.371Z,52.10
2017-12-19T18:06:05.090Z,52.10
2017-12-19T18:08:37.311Z,52.00
2017-12-19T18:11:09.810Z,52.00
2017-12-19T18:13:43.925Z,52.10
2017-12-19T18:16:14.244Z,52.10
2017-12-19T18:18:49.260Z,52.10
2017-12-19T18:21:20.073Z,52.10
2017-12-19T18:23:51.792Z,52.10
2017-12-19T18:26:21.177Z,52.10
2017-12-19T18:28:50.972Z,52.10
2017-12-19T18:31:20.721Z,52.10
2017-12-19T18:33:50.750Z,52.00
2017-12-19T18:36:23.410Z,52.00
2017-12-19T18:38:56.508Z,52.00
2017-12-19T18:41:33.578Z,52.00
2017-12-19T18:44:04.252Z,52.10
2017-12-19T18:46:36.328Z,52.10
2017-12-19T18:49:07.697Z,52.00
2017-12-19T18:51:44.988Z,52.10
2017-12-19T18:54:19.008Z,52.10
2017-12-19T18:56:47.984Z,52.10
2017-12-19T18:59:18.511Z,52.10
2017-12-19T19:01:47.863Z,51.90
2017-12-19T19:04:17.837Z,52.00
2017-12-19T19:06:47.672Z,52.00
2017-12-19T19:09:20.676Z,52.00
2017-12-19T19:11:51.144Z,52.10
2017-12-19T19:14:21.026Z,52.10
2017-12-19T19:16:51.634Z,52.10
2017-12-19T19:19:24.288Z,52.10
2017-12-19T19:21:55.854Z,52.00
2017-12-19T19:24:30.163Z,52.10
2017-12-19T19:29:43.561Z,52.10
2017-12-19T19:32:19.620Z,52.10
2017-12-19T19:34:52.775Z,52.10
2017-12-19T19:37:27.114Z,52.00
2017-12-19T19:53:51.766Z,52.10
2017-12-19T19:56:26.440Z,52.10
2017-12-19T20:01:45.647Z,52.00
2017-12-19T20:04:15.745Z,52.10
2017-12-19T20:06:47.647Z,52.10
2017-12-19T20:09:18.307Z,52.10
2017-12-19T20:11:55.520Z,52.00
2017-12-19T20:17:23.425Z,52.10
2017-12-19T20:19:56.832Z,52.00
2017-12-19T20:22:32.503Z,52.00
2017-12-19T20:25:03.542Z,52.00
2017-12-19T20:27:35.980Z,52.00
2017-12-19T20:30:07.426Z,52.00
2017-12-19T20:32:38.176Z,52.10
2017-12-19T20:35:08.733Z,52.10
2017-12-19T20:37:39.041Z,52.00
2017-12-19T20:40:24.648Z,52.00
2017-12-19T20:42:54.847Z,52.00
2017-12-19T20:45:24.936Z,52.10
2017-12-19T20:50:52.848Z,51.90
2017-12-19T20:53:29.509Z,51.90
2017-12-19T20:56:07.321Z,52.00
2017-12-19T20:58:44.288Z,52.00
2017-12-19T21:01:14.168Z,52.00
2017-12-19T21:03:43.672Z,52.00
2017-12-19T21:06:14.303Z,52.00
2017-12-19T21:08:46.353Z,51.90
2017-12-19T21:11:16.585Z,51.90
2017-12-19T21:13:48.110Z,51.90
2017-12-19T21:16:19.183Z,51.90
2017-12-19T21:18:50.051Z,52.00
2017-12-19T21:21:21.735Z,52.00
2017-12-19T21:24:05.798Z,52.00
2017-12-19T21:26:38.870Z,52.00
2017-12-19T21:31:54.900Z,52.00
2017-12-19T21:34:24.868Z,52.00
2017-12-19T21:36:55.621Z,51.90
2017-12-19T21:39:27.482Z,51.90
2017-12-19T21:41:59.288Z,51.90
2017-12-19T21:44:29.539Z,52.00
2017-12-19T21:47:01.094Z,52.00
2017-12-19T21:49:33.893Z,52.00
2017-12-19T21:52:05.290Z,52.00
2017-12-19T21:54:36.789Z,51.90
2017-12-19T21:57:07.052Z,52.00
2017-12-19T21:59:38.660Z,52.00
2017-12-19T22:02:08.956Z,52.00
2017-12-19T22:04:38.887Z,51.90
2017-12-19T22:07:08.069Z,51.90
2017-12-19T22:09:37.160Z,52.00
2017-12-19T22:12:05.779Z,51.90
2017-12-19T22:14:35.719Z,51.90
2017-12-19T22:17:06.226Z,51.90
2017-12-19T22:19:38.367Z,51.90
2017-12-19T22:22:09.428Z,52.00
2017-12-19T22:24:40.714Z,52.00
2017-12-19T22:27:21.787Z,52.00
2017-12-19T22:29:56.182Z,52.00
2017-12-19T22:32:28.675Z,52.00
2017-12-19T22:35:02.114Z,52.00
2017-12-19T22:37:32.304Z,52.00
2017-12-19T22:40:01.370Z,52.00
2017-12-19T22:42:32.304Z,52.00
2017-12-19T22:45:04.182Z,52.00
2017-12-19T22:47:37.006Z,52.00
2017-12-19T22:50:10.471Z,51.90
2017-12-19T22:52:43.654Z,52.00
2017-12-19T22:55:17.654Z,51.90
2017-12-19T22:57:49.248Z,52.00
2017-12-19T23:00:21.534Z,51.90
2017-12-19T23:02:54.827Z,51.90
2017-12-19T23:05:27.340Z,51.90
2017-12-19T23:08:01.531Z,52.00
2017-12-19T23:10:33.690Z,51.80
2017-12-19T23:13:05.993Z,51.90
2017-12-19T23:15:35.725Z,51.90
2017-12-19T23:18:04.893Z,51.90
2017-12-19T23:20:34.451Z,52.00
2017-12-19T23:23:05.098Z,51.90
2017-12-19T23:25:34.764Z,51.90
2017-12-19T23:28:04.692Z,51.90
2017-12-19T23:30:36.049Z,52.00
2017-12-19T23:33:07.408Z,52.00
2017-12-19T23:35:37.614Z,52.00
2017-12-19T23:38:09.076Z,52.00
2017-12-19T23:40:38.864Z,52.00
2017-12-19T23:43:08.295Z,52.00
2017-12-19T23:45:37.578Z,51.90
2017-12-19T23:48:06.985Z,51.90
2017-12-19T23:50:36.184Z,52.00
2017-12-19T23:53:05.185Z,51.90
2017-12-19T23:55:33.612Z,52.00
2017-12-19T23:58:05.074Z,51.90
